createdAt,value
2019-06-15T00:02:11.350Z,99.90
2019-06-15T00:04:37.740Z,99.90
2019-06-15T00:07:04.424Z,99.90
2019-06-15T00:09:30.925Z,99.90
2019-06-15T00:11:57.310Z,99.90
2019-06-15T00:14:29.562Z,99.90
2019-06-15T00:16:56.335Z,99.90
2019-06-15T00:19:30.870Z,99.90
2019-06-15T00:21:57.247Z,99.90
2019-06-15T00:24:34.889Z,99.90
2019-06-15T00:26:55.459Z,99.90
2019-06-15T00:29:23.045Z,99.90
2019-06-15T00:31:51.329Z,99.90
2019-06-15T00:34:17.605Z,99.90
2019-06-15T00:36:45.028Z,99.90
2019-06-15T00:39:11.418Z,99.90
2019-06-15T00:41:37.776Z,99.90
2019-06-15T00:44:04.433Z,99.90
2019-06-15T00:46:30.837Z,99.90
2019-06-15T00:48:57.233Z,99.90
2019-06-15T00:51:23.955Z,99.90
2019-06-15T00:53:50.449Z,99.90
2019-06-15T00:56:16.851Z,99.90
2019-06-15T00:58:43.235Z,99.90
2019-06-15T01:01:09.689Z,99.90
2019-06-15T01:03:36.327Z,99.90
2019-06-15T01:06:03.232Z,99.90
2019-06-15T01:08:29.620Z,99.90
2019-06-15T01:10:56.139Z,99.90
2019-06-15T01:13:30.568Z,99.90
2019-06-15T01:15:58.041Z,99.90
2019-06-15T01:18:24.423Z,99.90
2019-06-15T01:20:50.809Z,99.90
2019-06-15T01:23:17.165Z,99.90
2019-06-15T01:25:43.572Z,99.90
2019-06-15T01:28:13.049Z,99.90
2019-06-15T01:30:42.584Z,99.90
2019-06-15T01:33:08.887Z,99.90
2019-06-15T01:35:37.316Z,99.90
2019-06-15T01:38:03.792Z,99.90
2019-06-15T01:40:30.508Z,99.90
2019-06-15T01:42:57.924Z,99.90
2019-06-15T01:45:25.132Z,99.90
2019-06-15T01:47:51.781Z,99.90
2019-06-15T01:50:20.337Z,99.90
2019-06-15T01:52:47.896Z,99.90
2019-06-15T01:55:21.013Z,99.90
2019-06-15T01:57:43.585Z,99.90
2019-06-15T02:00:16.830Z,99.90
2019-06-15T02:02:44.991Z,99.90
2019-06-15T02:05:11.511Z,99.90
2019-06-15T02:07:39.253Z,99.90
2019-06-15T02:10:08.196Z,99.90
2019-06-15T02:12:34.612Z,99.90
2019-06-15T02:15:01.381Z,99.90
2019-06-15T02:17:28.776Z,99.90
2019-06-15T02:19:55.154Z,99.90
2019-06-15T02:22:21.801Z,99.90
2019-06-15T02:24:49.537Z,99.90
2019-06-15T02:27:15.899Z,99.90
2019-06-15T02:29:42.292Z,99.90
2019-06-15T02:32:08.918Z,99.90
2019-06-15T02:34:39.327Z,99.90
2019-06-15T02:37:06.815Z,99.90
2019-06-15T02:39:33.579Z,99.90
2019-06-15T02:41:59.984Z,99.90
2019-06-15T02:44:29.917Z,99.90
2019-06-15T02:46:56.467Z,99.90
2019-06-15T02:49:22.923Z,99.90
2019-06-15T02:51:50.078Z,99.90
2019-06-15T02:54:16.861Z,99.90
2019-06-15T02:56:43.198Z,99.90
2019-06-15T02:59:09.583Z,99.90
2019-06-15T03:01:37.042Z,99.90
2019-06-15T03:04:03.823Z,99.90
2019-06-15T03:06:30.613Z,99.90
2019-06-15T03:08:57.348Z,99.90
2019-06-15T03:11:29.714Z,99.90
2019-06-15T03:13:58.003Z,99.90
2019-06-15T03:16:24.402Z,99.90
2019-06-15T03:18:50.896Z,99.90
2019-06-15T03:21:17.614Z,99.90
2019-06-15T03:23:44.008Z,99.90
2019-06-15T03:26:10.402Z,99.90
2019-06-15T03:28:36.863Z,99.90
2019-06-15T03:31:04.295Z,99.90
2019-06-15T03:33:30.684Z,99.90
2019-06-15T03:35:57.052Z,99.90
2019-06-15T03:38:23.824Z,99.90
2019-06-15T03:40:50.211Z,99.90
2019-06-15T03:43:16.590Z,99.90
2019-06-15T03:45:42.987Z,99.90
2019-06-15T03:48:09.402Z,99.90
2019-06-15T03:50:35.867Z,99.90
2019-06-15T03:53:02.721Z,99.90
2019-06-15T03:55:29.251Z,99.90
2019-06-15T03:57:56.009Z,99.90
2019-06-15T04:00:31.760Z,99.90
2019-06-15T04:03:01.405Z,99.90
2019-06-15T04:05:27.818Z,99.90
2019-06-15T04:08:01.364Z,99.90
2019-06-15T04:10:27.832Z,99.90
2019-06-15T04:12:54.460Z,99.90
2019-06-15T04:15:21.031Z,99.90
2019-06-15T04:18:03.770Z,99.90
2019-06-15T04:20:31.273Z,99.90
2019-06-15T04:22:58.698Z,99.90
2019-06-15T04:25:29.796Z,99.90
2019-06-15T04:27:57.284Z,99.90
2019-06-15T04:30:23.671Z,99.90
2019-06-15T04:32:50.265Z,99.90
2019-06-15T04:35:17.264Z,99.90
2019-06-15T04:37:43.913Z,99.90
2019-06-15T04:40:10.429Z,99.90
2019-06-15T04:42:37.860Z,99.90
2019-06-15T04:45:05.137Z,99.90
2019-06-15T04:47:32.097Z,99.90
2019-06-15T04:49:58.524Z,99.90
2019-06-15T04:52:25.477Z,99.90
2019-06-15T04:54:52.093Z,99.90
2019-06-15T04:57:18.462Z,99.90
2019-06-15T04:59:44.830Z,99.90
2019-06-15T05:02:11.225Z,99.90
2019-06-15T05:04:37.855Z,99.90
2019-06-15T05:07:04.604Z,99.90
2019-06-15T05:09:31.271Z,99.90
2019-06-15T05:11:59.733Z,99.90
2019-06-15T05:14:31.932Z,99.90
2019-06-15T05:16:58.626Z,99.90
2019-06-15T05:19:26.438Z,99.90
2019-06-15T05:21:54.098Z,99.90
2019-06-15T05:24:20.658Z,99.90
2019-06-15T05:26:47.080Z,99.90
2019-06-15T05:29:13.454Z,99.90
2019-06-15T05:31:39.864Z,99.90
2019-06-15T05:34:06.281Z,99.90
2019-06-15T05:36:32.691Z,99.90
2019-06-15T05:38:59.075Z,99.90
2019-06-15T05:41:26.567Z,99.90
2019-06-15T05:43:53.298Z,99.90
2019-06-15T05:46:21.039Z,99.90
2019-06-15T05:48:47.537Z,99.90
2019-06-15T05:51:20.261Z,99.90
2019-06-15T05:53:52.771Z,99.90
2019-06-15T05:56:20.489Z,99.90
2019-06-15T05:58:47.280Z,99.90
2019-06-15T06:01:13.692Z,99.90
2019-06-15T06:03:53.473Z,99.90
2019-06-15T06:06:21.030Z,99.90
2019-06-15T06:08:48.510Z,99.90
2019-06-15T06:11:15.096Z,99.90
2019-06-15T06:13:42.491Z,99.90
2019-06-15T06:16:12.906Z,99.90
2019-06-15T06:18:40.564Z,99.90
2019-06-15T06:21:07.055Z,99.90
2019-06-15T06:23:38.623Z,99.90
2019-06-15T06:26:07.233Z,99.90
2019-06-15T06:28:33.679Z,99.90
2019-06-15T06:31:00.212Z,99.90
2019-06-15T06:33:32.887Z,99.90
2019-06-15T06:36:00.287Z,99.90
2019-06-15T06:38:27.695Z,99.90
2019-06-15T06:41:03.188Z,99.90
2019-06-15T06:43:30.632Z,99.90
2019-06-15T06:46:00.291Z,99.90
2019-06-15T06:48:30.569Z,99.90
2019-06-15T06:51:08.315Z,99.90
2019-06-15T06:53:35.089Z,99.90
2019-06-15T06:56:02.872Z,99.90
2019-06-15T06:58:29.374Z,99.90
2019-06-15T07:00:56.129Z,99.90
2019-06-15T07:03:23.046Z,99.90
2019-06-15T07:05:54.464Z,99.90
2019-06-15T07:08:29.522Z,99.90
2019-06-15T07:10:55.908Z,99.90
2019-06-15T07:13:25.732Z,99.90
2019-06-15T07:15:53.113Z,99.90
2019-06-15T07:18:19.624Z,99.90
2019-06-15T07:20:51.005Z,99.90
2019-06-15T07:23:17.593Z,99.90
2019-06-15T07:25:53.996Z,99.90
2019-06-15T07:28:21.508Z,99.90
2019-06-15T07:30:49.908Z,99.90
2019-06-15T07:33:17.428Z,99.90
2019-06-15T07:35:48.967Z,99.90
2019-06-15T07:38:15.548Z,99.90
2019-06-15T07:40:41.913Z,99.90
2019-06-15T07:43:10.331Z,99.90
2019-06-15T07:45:36.704Z,99.90
2019-06-15T07:48:09.749Z,99.90
2019-06-15T07:50:36.261Z,99.90
2019-06-15T07:53:04.710Z,99.90
2019-06-15T07:55:31.141Z,99.90
2019-06-15T07:57:57.773Z,99.90
2019-06-15T08:00:24.353Z,99.90
2019-06-15T08:02:51.137Z,99.90
2019-06-15T08:05:18.069Z,99.90
2019-06-15T08:07:45.778Z,99.90
2019-06-15T08:10:12.657Z,99.60
2019-06-15T08:12:41.937Z,99.20
2019-06-15T08:15:09.113Z,97.90
2019-06-15T08:17:35.501Z,97.80
2019-06-15T08:20:08.634Z,99.70
2019-06-15T08:22:39.529Z,95.80
2019-06-15T08:25:06.796Z,93.30
2019-06-15T08:27:34.448Z,95.30
2019-06-15T08:30:00.936Z,93.30
2019-06-15T08:32:27.643Z,92.80
2019-06-15T08:34:54.018Z,94.70
2019-06-15T08:37:20.447Z,91.30
2019-06-15T08:39:46.776Z,90.70
2019-06-15T08:42:13.220Z,89.40
2019-06-15T08:44:39.660Z,90.60
2019-06-15T08:47:06.133Z,91.30
2019-06-15T08:49:32.525Z,90.10
2019-06-15T08:51:58.914Z,90.60
2019-06-15T08:54:25.642Z,90.30
2019-06-15T08:56:52.288Z,89.60
2019-06-15T08:59:18.676Z,86.70
2019-06-15T09:01:45.049Z,84.70
2019-06-15T09:04:11.446Z,85.00
2019-06-15T09:06:37.920Z,85.80
2019-06-15T09:09:05.385Z,86.50
2019-06-15T09:11:31.949Z,86.90
2019-06-15T09:13:58.640Z,88.50
2019-06-15T09:16:29.382Z,88.10
2019-06-15T09:18:57.542Z,82.00
2019-06-15T09:21:25.096Z,87.70
2019-06-15T09:23:51.515Z,87.20
2019-06-15T09:26:18.504Z,80.90
2019-06-15T09:28:51.847Z,81.50
2019-06-15T09:31:23.554Z,84.10
2019-06-15T09:33:50.234Z,83.20
2019-06-15T09:36:16.733Z,85.60
2019-06-15T09:38:44.504Z,88.40
2019-06-15T09:41:11.869Z,85.70
2019-06-15T09:43:39.378Z,80.10
2019-06-15T09:46:06.159Z,80.60
2019-06-15T09:48:32.549Z,80.00
2019-06-15T09:51:09.706Z,81.10
2019-06-15T09:53:36.095Z,76.50
2019-06-15T09:56:06.384Z,81.80
2019-06-15T09:58:35.895Z,88.40
2019-06-15T10:01:04.507Z,82.40
2019-06-15T10:03:30.989Z,69.70
2019-06-15T10:05:58.669Z,72.40
2019-06-15T10:08:28.069Z,73.80
2019-06-15T10:10:54.542Z,76.50
2019-06-15T10:13:31.798Z,69.80
2019-06-15T10:16:02.193Z,68.50
2019-06-15T10:18:29.708Z,72.20
2019-06-15T10:20:56.261Z,74.70
2019-06-15T10:23:26.739Z,71.30
2019-06-15T10:25:54.287Z,71.60
2019-06-15T10:28:20.795Z,68.90
2019-06-15T10:30:47.312Z,70.80
2019-06-15T10:33:13.706Z,75.30
2019-06-15T10:35:44.610Z,77.00
2019-06-15T10:38:11.344Z,75.60
2019-06-15T10:40:37.688Z,74.60
2019-06-15T10:43:25.696Z,77.20
2019-06-15T10:45:52.175Z,76.00
2019-06-15T10:48:19.138Z,76.00
2019-06-15T10:50:45.956Z,69.40
2019-06-15T10:53:15.755Z,72.00
2019-06-15T10:55:42.095Z,73.00
2019-06-15T10:58:08.938Z,67.60
2019-06-15T11:00:35.508Z,70.00
2019-06-15T11:03:03.466Z,69.60
2019-06-15T11:05:29.966Z,70.20
2019-06-15T11:07:57.384Z,71.80
2019-06-15T11:10:40.991Z,76.00
2019-06-15T11:13:09.689Z,70.80
2019-06-15T11:15:37.556Z,67.30
2019-06-15T11:18:06.435Z,70.30
2019-06-15T11:20:33.128Z,68.70
2019-06-15T11:22:59.507Z,70.00
2019-06-15T11:25:27.837Z,71.50
2019-06-15T11:27:54.484Z,70.80
2019-06-15T11:30:20.926Z,72.70
2019-06-15T11:33:00.837Z,73.70
2019-06-15T11:35:31.037Z,72.70
2019-06-15T11:37:57.449Z,78.40
2019-06-15T11:40:24.199Z,76.40
2019-06-15T11:42:56.570Z,78.30
2019-06-15T11:45:24.124Z,81.30
2019-06-15T11:47:51.670Z,80.40
2019-06-15T11:50:25.761Z,75.90
2019-06-15T11:52:52.286Z,70.80
2019-06-15T11:55:20.052Z,71.60
2019-06-15T11:57:46.549Z,71.10
2019-06-15T12:00:30.901Z,72.30
2019-06-15T12:02:58.434Z,68.70
2019-06-15T12:05:28.119Z,72.40
2019-06-15T12:07:54.513Z,69.70
2019-06-15T12:10:24.672Z,71.50
2019-06-15T12:13:04.261Z,70.50
2019-06-15T12:15:31.029Z,65.90
2019-06-15T12:17:58.624Z,67.20
2019-06-15T12:20:28.314Z,71.10
2019-06-15T12:22:54.858Z,70.70
2019-06-15T12:25:25.047Z,72.90
2019-06-15T12:27:55.154Z,73.50
2019-06-15T12:30:46.132Z,73.80
2019-06-15T12:33:09.440Z,70.70
2019-06-15T12:35:36.065Z,74.90
2019-06-15T12:38:08.990Z,76.00
2019-06-15T12:40:36.398Z,74.70
2019-06-15T12:43:03.817Z,71.20
2019-06-15T12:45:31.569Z,74.60
2019-06-15T12:47:57.974Z,72.50
2019-06-15T12:50:26.449Z,71.70
2019-06-15T12:52:52.814Z,74.00
2019-06-15T12:55:25.724Z,73.60
2019-06-15T12:57:53.026Z,72.00
2019-06-15T13:00:23.273Z,74.60
2019-06-15T13:02:50.717Z,70.70
2019-06-15T13:05:17.132Z,72.00
2019-06-15T13:07:44.719Z,67.20
2019-06-15T13:10:11.361Z,66.70
2019-06-15T13:12:38.116Z,67.20
2019-06-15T13:15:06.105Z,66.10
2019-06-15T13:17:32.561Z,68.80
2019-06-15T13:19:59.274Z,71.20
2019-06-15T13:22:30.313Z,70.00
2019-06-15T13:24:57.035Z,68.50
2019-06-15T13:27:24.882Z,66.00
2019-06-15T13:29:51.342Z,69.80
2019-06-15T13:32:17.757Z,71.90
2019-06-15T13:34:44.125Z,69.70
2019-06-15T13:37:10.601Z,67.90
2019-06-15T13:39:43.137Z,72.90
2019-06-15T13:42:09.977Z,71.30
2019-06-15T13:44:38.253Z,72.50
2019-06-15T13:47:04.638Z,71.50
2019-06-15T13:49:31.021Z,70.20
2019-06-15T13:52:02.641Z,71.30
2019-06-15T13:54:30.196Z,72.60
2019-06-15T13:56:56.517Z,75.90
2019-06-15T13:59:23.027Z,73.10
2019-06-15T14:01:51.687Z,72.20
2019-06-15T14:04:18.108Z,73.10
2019-06-15T14:06:46.509Z,76.00
2019-06-15T14:09:12.882Z,76.70
2019-06-15T14:11:39.640Z,76.60
2019-06-15T14:14:06.022Z,75.80
2019-06-15T14:16:33.647Z,67.60
2019-06-15T14:19:01.357Z,70.70
2019-06-15T14:21:27.825Z,74.10
2019-06-15T14:24:01.927Z,69.10
2019-06-15T14:26:29.355Z,65.30
2019-06-15T14:28:55.809Z,63.10
2019-06-15T14:31:23.845Z,61.40
2019-06-15T14:33:50.310Z,66.40
2019-06-15T14:36:17.043Z,69.60
2019-06-15T14:38:43.380Z,64.50
2019-06-15T14:41:09.701Z,67.50
2019-06-15T14:43:44.231Z,69.10
2019-06-15T14:46:10.651Z,65.30
2019-06-15T14:48:43.852Z,66.20
2019-06-15T14:51:10.539Z,63.00
2019-06-15T14:53:39.469Z,66.60
2019-06-15T14:56:06.774Z,70.30
2019-06-15T14:58:33.408Z,70.60
2019-06-15T15:00:59.931Z,70.30
2019-06-15T15:03:26.743Z,73.70
2019-06-15T15:05:53.443Z,72.90
2019-06-15T15:08:26.233Z,70.10
2019-06-15T15:10:58.671Z,70.70
2019-06-15T15:13:26.454Z,70.00
2019-06-15T15:15:53.256Z,72.30
2019-06-15T15:18:26.756Z,72.50
2019-06-15T15:20:52.609Z,74.30
2019-06-15T15:23:22.453Z,71.20
2019-06-15T15:25:57.402Z,70.60
2019-06-15T15:28:24.434Z,70.30
2019-06-15T15:30:52.893Z,70.40
2019-06-15T15:33:19.254Z,72.20
2019-06-15T15:35:46.615Z,71.30
2019-06-15T15:38:13.306Z,69.70
2019-06-15T15:40:39.686Z,73.90
2019-06-15T15:43:06.936Z,73.10
2019-06-15T15:45:33.480Z,74.60
2019-06-15T15:48:00.117Z,75.20
2019-06-15T15:50:26.875Z,74.50
2019-06-15T15:52:57.478Z,75.40
2019-06-15T15:55:26.530Z,73.40
2019-06-15T15:57:56.306Z,74.90
2019-06-15T16:00:31.570Z,73.40
2019-06-15T16:02:57.976Z,71.30
2019-06-15T16:05:30.403Z,73.00
2019-06-15T16:07:57.002Z,74.40
2019-06-15T16:10:26.669Z,71.30
2019-06-15T16:12:56.657Z,72.30
2019-06-15T16:15:22.407Z,75.20
2019-06-15T16:17:48.953Z,76.30
2019-06-15T16:20:17.442Z,76.60
2019-06-15T16:22:45.941Z,76.50
2019-06-15T16:25:12.988Z,78.10
2019-06-15T16:27:40.708Z,76.30
2019-06-15T16:30:08.649Z,76.40
2019-06-15T16:32:37.247Z,77.40
2019-06-15T16:35:05.673Z,79.80
2019-06-15T16:37:32.007Z,78.30
2019-06-15T16:39:58.544Z,79.90
2019-06-15T16:42:26.724Z,78.90
2019-06-15T16:44:56.151Z,81.20
2019-06-15T16:47:22.242Z,78.60
2019-06-15T16:49:48.996Z,80.60
2019-06-15T16:52:16.521Z,79.40
2019-06-15T16:54:43.163Z,78.40
2019-06-15T16:57:09.527Z,80.60
2019-06-15T16:59:36.478Z,82.70
2019-06-15T17:02:03.206Z,82.30
2019-06-15T17:04:29.553Z,82.20
2019-06-15T17:06:56.667Z,82.50
2019-06-15T17:09:30.316Z,83.00
2019-06-15T17:11:57.164Z,82.30
2019-06-15T17:14:23.505Z,82.50
2019-06-15T17:16:52.040Z,82.10
2019-06-15T17:19:18.387Z,81.70
2019-06-15T17:21:46.578Z,82.50
2019-06-15T17:24:17.102Z,84.80
2019-06-15T17:26:46.672Z,83.40
2019-06-15T17:29:12.521Z,83.80
2019-06-15T17:31:39.267Z,84.30
2019-06-15T17:34:07.245Z,83.70
2019-06-15T17:36:36.551Z,83.70
2019-06-15T17:39:02.021Z,82.30
2019-06-15T17:41:30.569Z,82.60
2019-06-15T17:43:56.969Z,83.00
2019-06-15T17:46:27.678Z,84.40
2019-06-15T17:48:52.596Z,84.00
2019-06-15T17:51:27.039Z,83.80
2019-06-15T17:53:56.200Z,85.30
2019-06-15T17:56:24.021Z,85.50
2019-06-15T17:58:50.391Z,87.20
2019-06-15T18:01:20.542Z,87.40
2019-06-15T18:03:54.054Z,87.50
2019-06-15T18:06:17.454Z,87.80
2019-06-15T18:08:43.412Z,87.90
2019-06-15T18:11:09.792Z,89.50
2019-06-15T18:13:37.136Z,89.70
2019-06-15T18:16:06.407Z,89.80
2019-06-15T18:18:32.358Z,90.50
2019-06-15T18:20:59.059Z,90.70
2019-06-15T18:23:25.455Z,90.60
2019-06-15T18:25:51.836Z,90.80
2019-06-15T18:28:18.202Z,90.90
2019-06-15T18:30:46.648Z,91.20
2019-06-15T18:33:13.398Z,91.50
2019-06-15T18:35:39.768Z,92.00
2019-06-15T18:38:07.258Z,91.60
2019-06-15T18:40:33.947Z,91.80
2019-06-15T18:43:00.766Z,92.30
2019-06-15T18:45:27.540Z,93.00
2019-06-15T18:47:56.552Z,93.40
2019-06-15T18:50:28.141Z,94.00
2019-06-15T18:52:56.356Z,94.80
2019-06-15T18:55:22.678Z,95.60
2019-06-15T18:57:52.113Z,96.00
2019-06-15T19:00:26.212Z,96.60
2019-06-15T19:02:53.256Z,97.30
2019-06-15T19:05:20.101Z,98.60
2019-06-15T19:07:46.716Z,99.70
2019-06-15T19:10:28.592Z,99.90
2019-06-15T19:13:03.389Z,99.90
2019-06-15T19:15:29.993Z,99.90
2019-06-15T19:17:56.511Z,99.90
2019-06-15T19:20:23.091Z,99.90
2019-06-15T19:22:52.953Z,99.90
2019-06-15T19:25:19.439Z,99.90
2019-06-15T19:27:45.860Z,99.90
2019-06-15T19:30:13.176Z,99.90
2019-06-15T19:32:39.620Z,99.90
2019-06-15T19:35:06.644Z,99.90
2019-06-15T19:37:36.841Z,99.90
2019-06-15T19:40:07.306Z,99.90
2019-06-15T19:42:36.479Z,99.90
2019-06-15T19:45:10.253Z,99.90
2019-06-15T19:47:47.003Z,99.90
2019-06-15T19:50:16.603Z,99.90
2019-06-15T19:52:42.918Z,99.90
2019-06-15T19:55:10.300Z,99.90
2019-06-15T19:57:36.674Z,99.90
2019-06-15T20:00:08.521Z,99.90
2019-06-15T20:02:36.469Z,99.90
2019-06-15T20:05:06.834Z,99.90
2019-06-15T20:07:33.349Z,99.90
2019-06-15T20:09:59.878Z,99.90
2019-06-15T20:12:26.564Z,99.90
2019-06-15T20:14:53.257Z,99.90
2019-06-15T20:17:19.734Z,99.90
2019-06-15T20:19:46.522Z,99.90
2019-06-15T20:22:13.082Z,99.90
2019-06-15T20:24:47.439Z,99.90
2019-06-15T20:27:18.560Z,99.90
2019-06-15T20:29:47.491Z,99.90
2019-06-15T20:32:14.231Z,99.90
2019-06-15T20:34:40.731Z,99.90
2019-06-15T20:37:08.194Z,99.90
2019-06-15T20:39:36.302Z,99.90
2019-06-15T20:42:03.059Z,99.90
2019-06-15T20:44:29.551Z,99.90
2019-06-15T20:46:57.055Z,99.90
2019-06-15T20:49:24.918Z,99.90
2019-06-15T20:51:51.445Z,99.90
2019-06-15T20:54:17.867Z,99.90
2019-06-15T20:56:46.161Z,99.90
2019-06-15T20:59:12.439Z,99.90
2019-06-15T21:01:39.316Z,99.90
2019-06-15T21:04:12.742Z,99.90
2019-06-15T21:06:39.155Z,99.90
2019-06-15T21:09:06.798Z,99.90
2019-06-15T21:11:36.049Z,99.90
2019-06-15T21:14:03.854Z,99.90
2019-06-15T21:16:30.292Z,99.90
2019-06-15T21:18:57.751Z,99.90
2019-06-15T21:21:27.508Z,99.90
2019-06-15T21:23:53.590Z,99.90
2019-06-15T21:26:22.069Z,99.90
2019-06-15T21:28:48.495Z,99.90
2019-06-15T21:31:19.856Z,99.90
2019-06-15T21:33:46.784Z,99.90
2019-06-15T21:36:13.800Z,99.90
2019-06-15T21:38:41.235Z,99.90
2019-06-15T21:41:09.880Z,99.90
2019-06-15T21:43:36.491Z,99.90
2019-06-15T21:46:03.114Z,99.90
2019-06-15T21:48:31.562Z,99.90
2019-06-15T21:50:59.697Z,99.90
2019-06-15T21:53:26.628Z,99.90
2019-06-15T21:55:57.088Z,99.90
2019-06-15T21:58:27.168Z,99.90
2019-06-15T22:01:17.470Z,99.90
2019-06-15T22:03:50.201Z,99.90
2019-06-15T22:06:16.927Z,99.90
2019-06-15T22:08:43.600Z,99.90
2019-06-15T22:11:10.026Z,99.90
2019-06-15T22:13:42.586Z,99.90
2019-06-15T22:16:09.326Z,99.90
2019-06-15T22:18:50.834Z,99.90
2019-06-15T22:21:18.225Z,99.90
2019-06-15T22:23:47.067Z,99.90
2019-06-15T22:26:12.989Z,99.90
2019-06-15T22:28:49.429Z,99.90
2019-06-15T22:31:17.252Z,99.90
2019-06-15T22:33:43.668Z,99.90
2019-06-15T22:36:22.348Z,99.90
2019-06-15T22:38:46.209Z,99.90
2019-06-15T22:41:13.813Z,99.90
2019-06-15T22:43:41.213Z,99.90
2019-06-15T22:46:08.020Z,99.90
2019-06-15T22:48:36.156Z,99.90
2019-06-15T22:51:06.601Z,99.90
2019-06-15T22:53:36.235Z,99.90
2019-06-15T22:56:02.993Z,99.90
2019-06-15T22:58:29.312Z,99.90
2019-06-15T23:00:56.806Z,99.90
2019-06-15T23:03:26.104Z,99.90
2019-06-15T23:05:51.677Z,99.90
2019-06-15T23:08:18.442Z,99.90
2019-06-15T23:10:46.869Z,99.90
2019-06-15T23:13:13.173Z,99.90
2019-06-15T23:15:47.390Z,99.90
2019-06-15T23:18:13.886Z,99.90
2019-06-15T23:20:41.614Z,99.90
2019-06-15T23:23:10.461Z,99.90
2019-06-15T23:25:38.209Z,99.90
2019-06-15T23:28:07.097Z,99.90
2019-06-15T23:30:36.352Z,99.90
2019-06-15T23:33:02.170Z,99.90
2019-06-15T23:35:36.731Z,99.90
2019-06-15T23:38:03.460Z,99.90
2019-06-15T23:40:29.821Z,99.90
2019-06-15T23:42:58.371Z,99.90
2019-06-15T23:45:26.788Z,99.90
2019-06-15T23:47:53.439Z,99.90
2019-06-15T23:50:21.418Z,99.90
2019-06-15T23:52:47.946Z,99.90
2019-06-15T23:55:16.049Z,99.90
2019-06-15T23:57:47.509Z,99.90
